sensor_id;sensor_type;location;lat;lon;timestamp;temperature;humidity
9881;DHT22;4979;51.014;6.678;2024-03-17T00:04:27;8.30;99.90
9881;DHT22;4979;51.014;6.678;2024-03-17T00:06:55;8.20;99.90
9881;DHT22;4979;51.014;6.678;2024-03-17T00:09:21;8.30;99.90
9881;DHT22;4979;51.014;6.678;2024-03-17T00:11:46;8.20;99.90
9881;DHT22;4979;51.014;6.678;2024-03-17T00:14:12;8.20;99.90
9881;DHT22;4979;51.014;6.678;2024-03-17T00:19:04;8.20;99.90
9881;DHT22;4979;51.014;6.678;2024-03-17T00:23:56;8.10;99.90
9881;DHT22;4979;51.014;6.678;2024-03-17T00:26:22;8.10;99.90
9881;DHT22;4979;51.014;6.678;2024-03-17T00:28:48;8.20;99.90
9881;DHT22;4979;51.014;6.678;2024-03-17T00:31:16;8.10;99.90
9881;DHT22;4979;51.014;6.678;2024-03-17T00:33:42;8.10;99.90
9881;DHT22;4979;51.014;6.678;2024-03-17T00:36:07;8.00;99.90
9881;DHT22;4979;51.014;6.678;2024-03-17T00:38:33;8.00;99.90
9881;DHT22;4979;51.014;6.678;2024-03-17T00:40:59;7.90;99.90
9881;DHT22;4979;51.014;6.678;2024-03-17T00:45:53;7.90;99.90
9881;DHT22;4979;51.014;6.678;2024-03-17T00:48:19;8.00;99.90
9881;DHT22;4979;51.014;6.678;2024-03-17T00:50:45;8.00;99.90
9881;DHT22;4979;51.014;6.678;2024-03-17T00:53:11;7.90;99.90
9881;DHT22;4979;51.014;6.678;2024-03-17T00:55:37;7.90;99.90
9881;DHT22;4979;51.014;6.678;2024-03-17T00:58:03;7.90;99.90
9881;DHT22;4979;51.014;6.678;2024-03-17T01:00:29;7.90;99.90
9881;DHT22;4979;51.014;6.678;2024-03-17T01:02:55;8.00;99.90
9881;DHT22;4979;51.014;6.678;2024-03-17T01:05:21;8.00;99.90
9881;DHT22;4979;51.014;6.678;2024-03-17T01:07:47;8.00;99.90
9881;DHT22;4979;51.014;6.678;2024-03-17T01:10:14;8.00;99.90
9881;DHT22;4979;51.014;6.678;2024-03-17T01:12:39;8.00;99.90
9881;DHT22;4979;51.014;6.678;2024-03-17T01:15:06;8.00;99.90
9881;DHT22;4979;51.014;6.678;2024-03-17T01:17:31;8.00;99.90
9881;DHT22;4979;51.014;6.678;2024-03-17T01:19:58;7.90;99.90
9881;DHT22;4979;51.014;6.678;2024-03-17T01:22:23;8.00;99.90
9881;DHT22;4979;51.014;6.678;2024-03-17T01:24:49;7.90;99.90
9881;DHT22;4979;51.014;6.678;2024-03-17T01:27:14;7.90;99.90
9881;DHT22;4979;51.014;6.678;2024-03-17T01:29:44;7.90;99.90
9881;DHT22;4979;51.014;6.678;2024-03-17T01:32:10;7.80;99.90
9881;DHT22;4979;51.014;6.678;2024-03-17T01:34:37;7.80;99.90
9881;DHT22;4979;51.014;6.678;2024-03-17T01:37:02;7.80;99.90
9881;DHT22;4979;51.014;6.678;2024-03-17T01:39:29;7.70;99.90
9881;DHT22;4979;51.014;6.678;2024-03-17T01:41:55;7.70;99.90
9881;DHT22;4979;51.014;6.678;2024-03-17T01:44:25;7.70;99.90
9881;DHT22;4979;51.014;6.678;2024-03-17T01:46:52;7.70;99.90
9881;DHT22;4979;51.014;6.678;2024-03-17T01:49:17;7.60;99.90
9881;DHT22;4979;51.014;6.678;2024-03-17T01:51:48;7.60;99.90
9881;DHT22;4979;51.014;6.678;2024-03-17T01:54:15;7.50;99.90
9881;DHT22;4979;51.014;6.678;2024-03-17T01:56:41;7.50;99.90
9881;DHT22;4979;51.014;6.678;2024-03-17T01:59:08;7.40;99.90
9881;DHT22;4979;51.014;6.678;2024-03-17T02:01:37;7.40;99.90
9881;DHT22;4979;51.014;6.678;2024-03-17T02:04:04;7.50;99.90
9881;DHT22;4979;51.014;6.678;2024-03-17T02:06:31;7.40;99.90
9881;DHT22;4979;51.014;6.678;2024-03-17T02:08:56;7.30;99.90
9881;DHT22;4979;51.014;6.678;2024-03-17T02:11:27;7.30;99.90
9881;DHT22;4979;51.014;6.678;2024-03-17T02:13:54;7.20;99.90
9881;DHT22;4979;51.014;6.678;2024-03-17T02:16:20;7.20;99.90
9881;DHT22;4979;51.014;6.678;2024-03-17T02:18:46;7.20;99.90
9881;DHT22;4979;51.014;6.678;2024-03-17T02:21:13;7.20;99.90
9881;DHT22;4979;51.014;6.678;2024-03-17T02:23:38;7.20;99.90
9881;DHT22;4979;51.014;6.678;2024-03-17T02:26:04;7.20;99.90
9881;DHT22;4979;51.014;6.678;2024-03-17T02:28:37;7.20;99.90
9881;DHT22;4979;51.014;6.678;2024-03-17T02:31:03;7.10;99.90
9881;DHT22;4979;51.014;6.678;2024-03-17T02:33:28;7.10;99.90
9881;DHT22;4979;51.014;6.678;2024-03-17T02:35:54;7.10;99.90
9881;DHT22;4979;51.014;6.678;2024-03-17T02:38:19;7.00;99.90
9881;DHT22;4979;51.014;6.678;2024-03-17T02:41:05;7.00;99.90
9881;DHT22;4979;51.014;6.678;2024-03-17T02:43:30;6.90;99.90
9881;DHT22;4979;51.014;6.678;2024-03-17T02:45:56;6.90;99.90
9881;DHT22;4979;51.014;6.678;2024-03-17T02:48:22;6.90;99.90
9881;DHT22;4979;51.014;6.678;2024-03-17T02:50:48;6.90;99.90
9881;DHT22;4979;51.014;6.678;2024-03-17T02:53:13;6.90;99.90
9881;DHT22;4979;51.014;6.678;2024-03-17T02:55:39;6.90;99.90
9881;DHT22;4979;51.014;6.678;2024-03-17T02:58:05;6.90;99.90
9881;DHT22;4979;51.014;6.678;2024-03-17T03:00:32;6.90;99.90
9881;DHT22;4979;51.014;6.678;2024-03-17T03:02:57;7.00;99.90
9881;DHT22;4979;51.014;6.678;2024-03-17T03:05:23;7.00;99.90
9881;DHT22;4979;51.014;6.678;2024-03-17T03:07:48;7.00;99.90
9881;DHT22;4979;51.014;6.678;2024-03-17T03:10:14;7.00;99.90
9881;DHT22;4979;51.014;6.678;2024-03-17T03:12:39;7.00;99.90
9881;DHT22;4979;51.014;6.678;2024-03-17T03:15:05;7.00;99.90
9881;DHT22;4979;51.014;6.678;2024-03-17T03:17:31;6.90;99.90
9881;DHT22;4979;51.014;6.678;2024-03-17T03:19:56;6.90;99.90
9881;DHT22;4979;51.014;6.678;2024-03-17T03:22:22;7.00;99.90
9881;DHT22;4979;51.014;6.678;2024-03-17T03:24:50;7.00;99.90
9881;DHT22;4979;51.014;6.678;2024-03-17T03:27:16;7.10;99.90
9881;DHT22;4979;51.014;6.678;2024-03-17T03:29:42;7.00;99.90
9881;DHT22;4979;51.014;6.678;2024-03-17T03:32:08;7.10;99.90
9881;DHT22;4979;51.014;6.678;2024-03-17T03:34:34;7.10;99.90
9881;DHT22;4979;51.014;6.678;2024-03-17T03:36:59;7.10;99.90
9881;DHT22;4979;51.014;6.678;2024-03-17T03:39:25;7.10;99.90
9881;DHT22;4979;51.014;6.678;2024-03-17T03:41:56;7.00;99.90
9881;DHT22;4979;51.014;6.678;2024-03-17T03:44:22;7.00;99.90
9881;DHT22;4979;51.014;6.678;2024-03-17T03:46:48;7.00;99.90
9881;DHT22;4979;51.014;6.678;2024-03-17T03:49:13;7.10;99.90
9881;DHT22;4979;51.014;6.678;2024-03-17T03:51:39;7.10;99.90
9881;DHT22;4979;51.014;6.678;2024-03-17T03:54:05;7.00;99.90
9881;DHT22;4979;51.014;6.678;2024-03-17T03:56:32;7.10;99.90
9881;DHT22;4979;51.014;6.678;2024-03-17T03:58:58;7.10;99.90
9881;DHT22;4979;51.014;6.678;2024-03-17T04:01:24;7.10;99.90
9881;DHT22;4979;51.014;6.678;2024-03-17T04:03:50;7.10;99.90
9881;DHT22;4979;51.014;6.678;2024-03-17T04:06:16;7.00;99.90
9881;DHT22;4979;51.014;6.678;2024-03-17T04:08:42;7.00;99.90
9881;DHT22;4979;51.014;6.678;2024-03-17T04:11:08;7.10;99.90
9881;DHT22;4979;51.014;6.678;2024-03-17T04:13:34;7.20;99.90
9881;DHT22;4979;51.014;6.678;2024-03-17T04:16:01;7.10;99.90
9881;DHT22;4979;51.014;6.678;2024-03-17T04:18:28;7.10;99.90
9881;DHT22;4979;51.014;6.678;2024-03-17T04:21:02;7.10;99.90
9881;DHT22;4979;51.014;6.678;2024-03-17T04:23:29;7.10;99.90
9881;DHT22;4979;51.014;6.678;2024-03-17T04:25:56;7.10;99.90
9881;DHT22;4979;51.014;6.678;2024-03-17T04:28:21;7.10;99.90
9881;DHT22;4979;51.014;6.678;2024-03-17T04:30:47;7.20;99.90
9881;DHT22;4979;51.014;6.678;2024-03-17T04:33:13;7.10;99.90
9881;DHT22;4979;51.014;6.678;2024-03-17T04:35:39;7.20;99.90
9881;DHT22;4979;51.014;6.678;2024-03-17T04:38:05;7.20;99.90
9881;DHT22;4979;51.014;6.678;2024-03-17T04:40:32;7.20;99.90
9881;DHT22;4979;51.014;6.678;2024-03-17T04:42:57;7.20;99.90
9881;DHT22;4979;51.014;6.678;2024-03-17T04:45:23;7.30;99.90
9881;DHT22;4979;51.014;6.678;2024-03-17T04:47:48;7.20;99.90
9881;DHT22;4979;51.014;6.678;2024-03-17T04:50:14;7.20;99.90
9881;DHT22;4979;51.014;6.678;2024-03-17T04:52:40;7.20;99.90
9881;DHT22;4979;51.014;6.678;2024-03-17T04:55:05;7.20;99.90
9881;DHT22;4979;51.014;6.678;2024-03-17T04:57:31;7.20;99.90
9881;DHT22;4979;51.014;6.678;2024-03-17T04:59:56;7.10;99.90
9881;DHT22;4979;51.014;6.678;2024-03-17T05:02:22;7.20;99.90
9881;DHT22;4979;51.014;6.678;2024-03-17T05:04:49;7.20;99.90
9881;DHT22;4979;51.014;6.678;2024-03-17T05:07:15;7.10;99.90
9881;DHT22;4979;51.014;6.678;2024-03-17T05:09:41;7.10;99.90
9881;DHT22;4979;51.014;6.678;2024-03-17T05:12:09;7.10;99.90
9881;DHT22;4979;51.014;6.678;2024-03-17T05:14:35;7.00;99.90
9881;DHT22;4979;51.014;6.678;2024-03-17T05:17:01;6.90;99.90
9881;DHT22;4979;51.014;6.678;2024-03-17T05:19:27;6.90;99.90
9881;DHT22;4979;51.014;6.678;2024-03-17T05:21:52;6.90;99.90
9881;DHT22;4979;51.014;6.678;2024-03-17T05:24:18;6.90;99.90
9881;DHT22;4979;51.014;6.678;2024-03-17T05:26:44;6.90;99.90
9881;DHT22;4979;51.014;6.678;2024-03-17T05:29:11;6.90;99.90
9881;DHT22;4979;51.014;6.678;2024-03-17T05:31:37;6.80;99.90
9881;DHT22;4979;51.014;6.678;2024-03-17T05:34:07;6.80;99.90
9881;DHT22;4979;51.014;6.678;2024-03-17T05:36:32;6.80;99.90
9881;DHT22;4979;51.014;6.678;2024-03-17T05:38:59;6.70;99.90
9881;DHT22;4979;51.014;6.678;2024-03-17T05:41:25;6.80;99.90
9881;DHT22;4979;51.014;6.678;2024-03-17T05:43:51;6.80;99.90
9881;DHT22;4979;51.014;6.678;2024-03-17T05:46:17;6.80;99.90
9881;DHT22;4979;51.014;6.678;2024-03-17T05:48:43;6.80;99.90
9881;DHT22;4979;51.014;6.678;2024-03-17T05:51:12;6.70;99.90
9881;DHT22;4979;51.014;6.678;2024-03-17T05:53:39;6.60;99.90
9881;DHT22;4979;51.014;6.678;2024-03-17T05:56:06;6.70;99.90
9881;DHT22;4979;51.014;6.678;2024-03-17T05:58:33;6.70;99.90
9881;DHT22;4979;51.014;6.678;2024-03-17T06:01:02;6.70;99.90
9881;DHT22;4979;51.014;6.678;2024-03-17T06:03:27;6.70;99.90
9881;DHT22;4979;51.014;6.678;2024-03-17T06:05:53;6.60;99.90
9881;DHT22;4979;51.014;6.678;2024-03-17T06:08:19;6.70;99.90
9881;DHT22;4979;51.014;6.678;2024-03-17T06:10:46;6.70;99.90
9881;DHT22;4979;51.014;6.678;2024-03-17T06:13:12;6.60;99.90
9881;DHT22;4979;51.014;6.678;2024-03-17T06:15:39;6.60;99.90
9881;DHT22;4979;51.014;6.678;2024-03-17T06:18:05;6.70;99.90
9881;DHT22;4979;51.014;6.678;2024-03-17T06:20:34;6.80;99.90
9881;DHT22;4979;51.014;6.678;2024-03-17T06:23:00;6.90;99.90
9881;DHT22;4979;51.014;6.678;2024-03-17T06:25:25;6.90;99.90
9881;DHT22;4979;51.014;6.678;2024-03-17T06:27:51;6.80;99.90
9881;DHT22;4979;51.014;6.678;2024-03-17T06:30:18;6.90;99.90
9881;DHT22;4979;51.014;6.678;2024-03-17T06:32:45;6.90;99.90
9881;DHT22;4979;51.014;6.678;2024-03-17T06:35:14;7.00;99.90
9881;DHT22;4979;51.014;6.678;2024-03-17T06:37:51;7.00;99.90
9881;DHT22;4979;51.014;6.678;2024-03-17T06:40:18;7.10;99.90
9881;DHT22;4979;51.014;6.678;2024-03-17T06:42:43;7.00;99.90
9881;DHT22;4979;51.014;6.678;2024-03-17T06:45:09;7.10;99.90
9881;DHT22;4979;51.014;6.678;2024-03-17T06:47:37;7.10;99.90
9881;DHT22;4979;51.014;6.678;2024-03-17T06:50:06;7.00;99.90
9881;DHT22;4979;51.014;6.678;2024-03-17T06:52:35;7.00;99.90
9881;DHT22;4979;51.014;6.678;2024-03-17T06:55:01;7.00;99.90
9881;DHT22;4979;51.014;6.678;2024-03-17T06:57:27;7.10;99.90
9881;DHT22;4979;51.014;6.678;2024-03-17T06:59:52;7.00;99.90
9881;DHT22;4979;51.014;6.678;2024-03-17T07:02:18;7.20;99.90
9881;DHT22;4979;51.014;6.678;2024-03-17T07:04:45;7.20;99.90
9881;DHT22;4979;51.014;6.678;2024-03-17T07:07:12;7.20;99.90
9881;DHT22;4979;51.014;6.678;2024-03-17T07:09:38;7.20;99.90
9881;DHT22;4979;51.014;6.678;2024-03-17T07:12:06;7.30;99.90
9881;DHT22;4979;51.014;6.678;2024-03-17T07:14:32;7.30;99.90
9881;DHT22;4979;51.014;6.678;2024-03-17T07:16:57;7.50;99.90
9881;DHT22;4979;51.014;6.678;2024-03-17T07:19:23;7.60;99.90
9881;DHT22;4979;51.014;6.678;2024-03-17T07:21:48;7.80;99.90
9881;DHT22;4979;51.014;6.678;2024-03-17T07:24:14;7.90;99.90
9881;DHT22;4979;51.014;6.678;2024-03-17T07:26:39;8.00;99.90
9881;DHT22;4979;51.014;6.678;2024-03-17T07:29:05;8.20;99.90
9881;DHT22;4979;51.014;6.678;2024-03-17T07:31:31;8.20;99.90
9881;DHT22;4979;51.014;6.678;2024-03-17T07:33:57;8.10;99.90
9881;DHT22;4979;51.014;6.678;2024-03-17T07:36:23;8.30;99.90
9881;DHT22;4979;51.014;6.678;2024-03-17T07:38:49;8.30;99.90
9881;DHT22;4979;51.014;6.678;2024-03-17T07:41:14;8.40;99.90
9881;DHT22;4979;51.014;6.678;2024-03-17T07:43:40;8.50;99.90
9881;DHT22;4979;51.014;6.678;2024-03-17T07:46:07;8.60;99.90
9881;DHT22;4979;51.014;6.678;2024-03-17T07:48:34;8.70;99.90
9881;DHT22;4979;51.014;6.678;2024-03-17T07:51:02;9.00;99.90
9881;DHT22;4979;51.014;6.678;2024-03-17T07:55:59;9.30;99.90
9881;DHT22;4979;51.014;6.678;2024-03-17T07:58:25;9.50;99.90
9881;DHT22;4979;51.014;6.678;2024-03-17T08:00:52;9.60;99.90
9881;DHT22;4979;51.014;6.678;2024-03-17T08:03:18;9.70;99.90
9881;DHT22;4979;51.014;6.678;2024-03-17T08:05:49;9.80;99.90
9881;DHT22;4979;51.014;6.678;2024-03-17T08:08:15;9.90;99.90
9881;DHT22;4979;51.014;6.678;2024-03-17T08:10:41;10.10;99.90
9881;DHT22;4979;51.014;6.678;2024-03-17T08:13:07;10.20;99.90
9881;DHT22;4979;51.014;6.678;2024-03-17T08:15:34;10.20;99.90
9881;DHT22;4979;51.014;6.678;2024-03-17T08:18:00;10.20;99.90
9881;DHT22;4979;51.014;6.678;2024-03-17T08:20:25;10.10;99.90
9881;DHT22;4979;51.014;6.678;2024-03-17T08:22:51;10.10;99.90
9881;DHT22;4979;51.014;6.678;2024-03-17T08:25:17;10.40;99.90
9881;DHT22;4979;51.014;6.678;2024-03-17T08:27:43;10.60;99.90
9881;DHT22;4979;51.014;6.678;2024-03-17T08:30:09;10.80;99.90
9881;DHT22;4979;51.014;6.678;2024-03-17T08:32:35;10.80;99.90
9881;DHT22;4979;51.014;6.678;2024-03-17T08:35:01;10.60;99.90
9881;DHT22;4979;51.014;6.678;2024-03-17T08:37:26;10.60;99.90
9881;DHT22;4979;51.014;6.678;2024-03-17T08:39:52;10.40;99.90
9881;DHT22;4979;51.014;6.678;2024-03-17T08:42:18;10.30;99.90
9881;DHT22;4979;51.014;6.678;2024-03-17T08:44:46;10.40;99.90
9881;DHT22;4979;51.014;6.678;2024-03-17T08:47:11;10.50;99.90
9881;DHT22;4979;51.014;6.678;2024-03-17T08:49:37;10.50;99.90
9881;DHT22;4979;51.014;6.678;2024-03-17T08:52:03;10.60;99.90
9881;DHT22;4979;51.014;6.678;2024-03-17T08:56:54;10.80;99.90
9881;DHT22;4979;51.014;6.678;2024-03-17T08:59:20;10.80;99.90
9881;DHT22;4979;51.014;6.678;2024-03-17T09:01:45;10.90;99.90
9881;DHT22;4979;51.014;6.678;2024-03-17T09:04:11;10.80;99.90
9881;DHT22;4979;51.014;6.678;2024-03-17T09:06:37;10.70;99.90
9881;DHT22;4979;51.014;6.678;2024-03-17T09:09:03;10.60;99.90
9881;DHT22;4979;51.014;6.678;2024-03-17T09:13:55;10.60;99.90
9881;DHT22;4979;51.014;6.678;2024-03-17T09:16:20;10.50;99.90
9881;DHT22;4979;51.014;6.678;2024-03-17T09:18:49;10.70;99.90
9881;DHT22;4979;51.014;6.678;2024-03-17T09:23:43;10.90;99.90
9881;DHT22;4979;51.014;6.678;2024-03-17T09:26:10;11.10;99.90
9881;DHT22;4979;51.014;6.678;2024-03-17T09:28:41;11.20;99.90
9881;DHT22;4979;51.014;6.678;2024-03-17T09:31:06;11.30;99.90
9881;DHT22;4979;51.014;6.678;2024-03-17T09:33:33;11.50;99.90
9881;DHT22;4979;51.014;6.678;2024-03-17T09:36:03;11.70;99.90
9881;DHT22;4979;51.014;6.678;2024-03-17T09:38:29;11.70;99.90
9881;DHT22;4979;51.014;6.678;2024-03-17T09:40:55;11.60;99.90
9881;DHT22;4979;51.014;6.678;2024-03-17T09:43:24;11.40;99.90
9881;DHT22;4979;51.014;6.678;2024-03-17T09:45:50;11.40;99.90
9881;DHT22;4979;51.014;6.678;2024-03-17T09:48:19;11.60;99.90
9881;DHT22;4979;51.014;6.678;2024-03-17T09:50:59;11.70;99.90
9881;DHT22;4979;51.014;6.678;2024-03-17T09:53:27;11.80;99.90
9881;DHT22;4979;51.014;6.678;2024-03-17T09:56:01;11.90;99.90
9881;DHT22;4979;51.014;6.678;2024-03-17T10:00:54;12.00;99.90
9881;DHT22;4979;51.014;6.678;2024-03-17T10:06:16;12.10;99.90
9881;DHT22;4979;51.014;6.678;2024-03-17T10:08:49;12.00;99.90
9881;DHT22;4979;51.014;6.678;2024-03-17T10:11:23;12.10;99.90
9881;DHT22;4979;51.014;6.678;2024-03-17T10:14:09;12.10;99.90
9881;DHT22;4979;51.014;6.678;2024-03-17T10:16:36;12.10;99.90
9881;DHT22;4979;51.014;6.678;2024-03-17T10:21:39;12.40;99.90
9881;DHT22;4979;51.014;6.678;2024-03-17T10:24:27;12.50;99.90
9881;DHT22;4979;51.014;6.678;2024-03-17T10:26:58;12.60;99.90
9881;DHT22;4979;51.014;6.678;2024-03-17T10:29:33;12.80;99.90
9881;DHT22;4979;51.014;6.678;2024-03-17T10:32:14;12.90;99.90
9881;DHT22;4979;51.014;6.678;2024-03-17T10:34:41;13.00;99.90
9881;DHT22;4979;51.014;6.678;2024-03-17T10:39:36;13.30;99.90
9881;DHT22;4979;51.014;6.678;2024-03-17T10:42:04;13.60;99.90
9881;DHT22;4979;51.014;6.678;2024-03-17T10:44:31;13.70;99.90
9881;DHT22;4979;51.014;6.678;2024-03-17T10:46:58;14.00;99.90
9881;DHT22;4979;51.014;6.678;2024-03-17T10:49:31;14.20;99.90
9881;DHT22;4979;51.014;6.678;2024-03-17T10:52:01;14.20;99.90
9881;DHT22;4979;51.014;6.678;2024-03-17T10:54:28;14.20;99.90
9881;DHT22;4979;51.014;6.678;2024-03-17T10:57:03;14.20;99.90
9881;DHT22;4979;51.014;6.678;2024-03-17T10:59:41;14.30;99.90
9881;DHT22;4979;51.014;6.678;2024-03-17T11:02:21;14.60;99.90
9881;DHT22;4979;51.014;6.678;2024-03-17T11:04:58;14.50;99.90
9881;DHT22;4979;51.014;6.678;2024-03-17T11:07:24;14.50;99.90
9881;DHT22;4979;51.014;6.678;2024-03-17T11:09:53;13.90;99.90
9881;DHT22;4979;51.014;6.678;2024-03-17T11:12:55;14.00;99.90
9881;DHT22;4979;51.014;6.678;2024-03-17T11:20:40;13.90;99.90
9881;DHT22;4979;51.014;6.678;2024-03-17T11:23:06;14.10;99.90
9881;DHT22;4979;51.014;6.678;2024-03-17T11:28:01;14.20;99.90
9881;DHT22;4979;51.014;6.678;2024-03-17T11:30:43;14.20;99.90
9881;DHT22;4979;51.014;6.678;2024-03-17T11:38:53;14.10;99.90
9881;DHT22;4979;51.014;6.678;2024-03-17T11:49:28;14.50;99.90
9881;DHT22;4979;51.014;6.678;2024-03-17T11:52:02;14.50;99.90
9881;DHT22;4979;51.014;6.678;2024-03-17T11:54:35;14.50;99.90
9881;DHT22;4979;51.014;6.678;2024-03-17T11:57:03;14.40;99.90
9881;DHT22;4979;51.014;6.678;2024-03-17T11:59:29;14.50;99.90
9881;DHT22;4979;51.014;6.678;2024-03-17T12:01:55;14.50;99.90
9881;DHT22;4979;51.014;6.678;2024-03-17T12:04:23;14.60;99.90
9881;DHT22;4979;51.014;6.678;2024-03-17T12:06:51;14.50;99.90
9881;DHT22;4979;51.014;6.678;2024-03-17T12:09:22;14.50;99.90
9881;DHT22;4979;51.014;6.678;2024-03-17T12:11:58;14.70;99.90
9881;DHT22;4979;51.014;6.678;2024-03-17T12:14:24;14.60;99.90
9881;DHT22;4979;51.014;6.678;2024-03-17T12:16:55;14.60;99.90
9881;DHT22;4979;51.014;6.678;2024-03-17T12:19:22;14.80;99.90
9881;DHT22;4979;51.014;6.678;2024-03-17T12:21:49;14.80;99.90
9881;DHT22;4979;51.014;6.678;2024-03-17T12:24:20;14.80;99.90
9881;DHT22;4979;51.014;6.678;2024-03-17T12:26:47;15.00;99.90
9881;DHT22;4979;51.014;6.678;2024-03-17T12:29:35;14.90;99.90
9881;DHT22;4979;51.014;6.678;2024-03-17T12:32:05;14.90;99.90
9881;DHT22;4979;51.014;6.678;2024-03-17T12:34:34;14.90;99.90
9881;DHT22;4979;51.014;6.678;2024-03-17T12:37:00;14.90;99.90
9881;DHT22;4979;51.014;6.678;2024-03-17T12:39:27;14.90;99.90
9881;DHT22;4979;51.014;6.678;2024-03-17T12:44:31;14.90;99.90
9881;DHT22;4979;51.014;6.678;2024-03-17T12:46:58;15.00;99.90
9881;DHT22;4979;51.014;6.678;2024-03-17T12:51:52;14.90;99.90
9881;DHT22;4979;51.014;6.678;2024-03-17T12:54:25;14.90;99.90
9881;DHT22;4979;51.014;6.678;2024-03-17T12:57:05;14.90;99.90
9881;DHT22;4979;51.014;6.678;2024-03-17T12:59:50;14.90;99.90
9881;DHT22;4979;51.014;6.678;2024-03-17T13:02:34;14.90;99.90
9881;DHT22;4979;51.014;6.678;2024-03-17T13:05:19;14.80;99.90
9881;DHT22;4979;51.014;6.678;2024-03-17T13:07:46;14.90;99.90
9881;DHT22;4979;51.014;6.678;2024-03-17T13:10:19;14.70;99.90
9881;DHT22;4979;51.014;6.678;2024-03-17T13:12:46;14.80;99.90
9881;DHT22;4979;51.014;6.678;2024-03-17T13:15:13;14.70;99.90
9881;DHT22;4979;51.014;6.678;2024-03-17T13:17:40;14.80;99.90
9881;DHT22;4979;51.014;6.678;2024-03-17T13:20:08;14.80;99.90
9881;DHT22;4979;51.014;6.678;2024-03-17T13:22:38;14.70;99.90
9881;DHT22;4979;51.014;6.678;2024-03-17T13:25:07;14.70;99.90
9881;DHT22;4979;51.014;6.678;2024-03-17T13:27:33;14.70;99.90
9881;DHT22;4979;51.014;6.678;2024-03-17T13:29:59;14.60;99.90
9881;DHT22;4979;51.014;6.678;2024-03-17T13:32:25;14.60;99.90
9881;DHT22;4979;51.014;6.678;2024-03-17T13:34:52;14.60;99.90
9881;DHT22;4979;51.014;6.678;2024-03-17T13:39:43;14.60;99.90
9881;DHT22;4979;51.014;6.678;2024-03-17T13:42:09;14.60;99.90
9881;DHT22;4979;51.014;6.678;2024-03-17T13:44:35;14.50;99.90
9881;DHT22;4979;51.014;6.678;2024-03-17T13:47:00;14.50;99.90
9881;DHT22;4979;51.014;6.678;2024-03-17T13:49:29;14.50;99.90
9881;DHT22;4979;51.014;6.678;2024-03-17T13:51:55;14.60;99.90
9881;DHT22;4979;51.014;6.678;2024-03-17T13:54:21;14.60;99.90
9881;DHT22;4979;51.014;6.678;2024-03-17T13:56:49;14.60;99.90
9881;DHT22;4979;51.014;6.678;2024-03-17T13:59:18;14.70;99.90
9881;DHT22;4979;51.014;6.678;2024-03-17T14:01:44;14.80;99.90
9881;DHT22;4979;51.014;6.678;2024-03-17T14:04:16;14.70;99.90
9881;DHT22;4979;51.014;6.678;2024-03-17T14:06:44;14.70;99.90
9881;DHT22;4979;51.014;6.678;2024-03-17T14:09:11;14.80;99.90
9881;DHT22;4979;51.014;6.678;2024-03-17T14:11:37;14.70;99.90
9881;DHT22;4979;51.014;6.678;2024-03-17T14:14:06;14.80;99.90
9881;DHT22;4979;51.014;6.678;2024-03-17T14:16:33;14.90;99.90
9881;DHT22;4979;51.014;6.678;2024-03-17T14:18:59;14.90;99.90
9881;DHT22;4979;51.014;6.678;2024-03-17T14:21:26;15.00;99.90
9881;DHT22;4979;51.014;6.678;2024-03-17T14:23:52;15.00;99.90
9881;DHT22;4979;51.014;6.678;2024-03-17T14:26:17;15.10;99.90
9881;DHT22;4979;51.014;6.678;2024-03-17T14:28:43;15.00;99.90
9881;DHT22;4979;51.014;6.678;2024-03-17T14:31:08;15.10;99.90
9881;DHT22;4979;51.014;6.678;2024-03-17T14:33:34;15.20;99.90
9881;DHT22;4979;51.014;6.678;2024-03-17T14:36:00;15.40;99.90
9881;DHT22;4979;51.014;6.678;2024-03-17T14:38:26;15.40;99.90
9881;DHT22;4979;51.014;6.678;2024-03-17T14:40:52;15.50;99.90
9881;DHT22;4979;51.014;6.678;2024-03-17T14:43:18;15.50;99.90
9881;DHT22;4979;51.014;6.678;2024-03-17T14:45:43;15.60;99.90
9881;DHT22;4979;51.014;6.678;2024-03-17T14:48:09;15.60;99.90
9881;DHT22;4979;51.014;6.678;2024-03-17T14:50:35;15.50;99.90
9881;DHT22;4979;51.014;6.678;2024-03-17T14:53:01;15.60;99.90
9881;DHT22;4979;51.014;6.678;2024-03-17T14:57:54;15.70;99.90
9881;DHT22;4979;51.014;6.678;2024-03-17T15:00:20;15.70;99.90
9881;DHT22;4979;51.014;6.678;2024-03-17T15:02:49;15.80;99.90
9881;DHT22;4979;51.014;6.678;2024-03-17T15:05:16;15.80;99.90
9881;DHT22;4979;51.014;6.678;2024-03-17T15:07:44;15.90;99.90
9881;DHT22;4979;51.014;6.678;2024-03-17T15:10:10;15.80;99.90
9881;DHT22;4979;51.014;6.678;2024-03-17T15:12:36;15.80;99.90
9881;DHT22;4979;51.014;6.678;2024-03-17T15:15:01;15.70;99.90
9881;DHT22;4979;51.014;6.678;2024-03-17T15:19:53;15.70;99.90
9881;DHT22;4979;51.014;6.678;2024-03-17T15:22:19;15.80;99.90
9881;DHT22;4979;51.014;6.678;2024-03-17T15:24:47;15.80;99.90
9881;DHT22;4979;51.014;6.678;2024-03-17T15:27:13;15.80;99.90
9881;DHT22;4979;51.014;6.678;2024-03-17T15:29:40;15.70;99.90
9881;DHT22;4979;51.014;6.678;2024-03-17T15:32:06;15.70;99.90
9881;DHT22;4979;51.014;6.678;2024-03-17T15:34:32;15.60;99.90
9881;DHT22;4979;51.014;6.678;2024-03-17T15:36:59;15.60;99.90
9881;DHT22;4979;51.014;6.678;2024-03-17T15:39:24;15.50;99.90
9881;DHT22;4979;51.014;6.678;2024-03-17T15:41:50;15.50;99.90
9881;DHT22;4979;51.014;6.678;2024-03-17T15:44:16;15.50;99.90
9881;DHT22;4979;51.014;6.678;2024-03-17T15:46:41;15.50;99.90
9881;DHT22;4979;51.014;6.678;2024-03-17T15:49:07;15.40;99.90
9881;DHT22;4979;51.014;6.678;2024-03-17T15:51:33;15.50;99.90
9881;DHT22;4979;51.014;6.678;2024-03-17T15:53:58;15.40;99.90
9881;DHT22;4979;51.014;6.678;2024-03-17T15:56:24;15.30;99.90
9881;DHT22;4979;51.014;6.678;2024-03-17T15:58:49;15.10;99.90
9881;DHT22;4979;51.014;6.678;2024-03-17T16:01:15;14.90;99.90
9881;DHT22;4979;51.014;6.678;2024-03-17T16:03:43;14.80;99.90
9881;DHT22;4979;51.014;6.678;2024-03-17T16:06:15;14.70;99.90
9881;DHT22;4979;51.014;6.678;2024-03-17T16:08:46;14.70;99.90
9881;DHT22;4979;51.014;6.678;2024-03-17T16:11:13;14.60;99.90
9881;DHT22;4979;51.014;6.678;2024-03-17T16:13:40;14.50;99.90
9881;DHT22;4979;51.014;6.678;2024-03-17T16:16:15;14.50;99.90
9881;DHT22;4979;51.014;6.678;2024-03-17T16:18:41;14.40;99.90
9881;DHT22;4979;51.014;6.678;2024-03-17T16:21:15;14.40;99.90
9881;DHT22;4979;51.014;6.678;2024-03-17T16:23:48;14.30;99.90
9881;DHT22;4979;51.014;6.678;2024-03-17T16:26:13;14.30;99.90
9881;DHT22;4979;51.014;6.678;2024-03-17T16:28:39;14.20;99.90
9881;DHT22;4979;51.014;6.678;2024-03-17T16:31:06;14.10;99.90
9881;DHT22;4979;51.014;6.678;2024-03-17T16:33:35;14.10;99.90
9881;DHT22;4979;51.014;6.678;2024-03-17T16:36:03;14.10;99.90
9881;DHT22;4979;51.014;6.678;2024-03-17T16:38:30;14.00;99.90
9881;DHT22;4979;51.014;6.678;2024-03-17T16:40:57;13.90;99.90
9881;DHT22;4979;51.014;6.678;2024-03-17T16:43:41;13.90;99.90
9881;DHT22;4979;51.014;6.678;2024-03-17T16:46:32;14.00;99.90
9881;DHT22;4979;51.014;6.678;2024-03-17T16:49:06;13.90;99.90
9881;DHT22;4979;51.014;6.678;2024-03-17T16:51:33;13.90;99.90
9881;DHT22;4979;51.014;6.678;2024-03-17T16:53:59;13.90;99.90
9881;DHT22;4979;51.014;6.678;2024-03-17T16:56:24;13.80;99.90
9881;DHT22;4979;51.014;6.678;2024-03-17T16:58:50;13.80;99.90
9881;DHT22;4979;51.014;6.678;2024-03-17T17:01:15;13.70;99.90
9881;DHT22;4979;51.014;6.678;2024-03-17T17:03:41;13.70;99.90
9881;DHT22;4979;51.014;6.678;2024-03-17T17:06:06;13.70;99.90
9881;DHT22;4979;51.014;6.678;2024-03-17T17:08:32;13.60;99.90
9881;DHT22;4979;51.014;6.678;2024-03-17T17:11:00;13.50;99.90
9881;DHT22;4979;51.014;6.678;2024-03-17T17:13:25;13.50;99.90
9881;DHT22;4979;51.014;6.678;2024-03-17T17:21:21;13.40;99.90